sensor_id;sensor_type;location;lat;lon;timestamp;P1;durP1;ratioP1;P2;durP2;ratioP2
13051;SDS011;6592;47.484;9.726;2023-05-07T00:01:13;3.47;;;2.13;;
13051;SDS011;6592;47.484;9.726;2023-05-07T00:03:44;3.35;;;1.98;;
13051;SDS011;6592;47.484;9.726;2023-05-07T00:06:14;3.45;;;1.77;;
13051;SDS011;6592;47.484;9.726;2023-05-07T00:08:42;4.22;;;2.13;;
13051;SDS011;6592;47.484;9.726;2023-05-07T00:11:10;4.85;;;2.38;;
13051;SDS011;6592;47.484;9.726;2023-05-07T00:13:38;3.20;;;1.92;;
13051;SDS011;6592;47.484;9.726;2023-05-07T00:16:07;4.20;;;1.70;;
13051;SDS011;6592;47.484;9.726;2023-05-07T00:18:35;3.28;;;1.70;;
13051;SDS011;6592;47.484;9.726;2023-05-07T00:21:03;5.82;;;2.03;;
13051;SDS011;6592;47.484;9.726;2023-05-07T00:23:33;3.33;;;1.85;;
13051;SDS011;6592;47.484;9.726;2023-05-07T00:26:01;4.18;;;2.10;;
13051;SDS011;6592;47.484;9.726;2023-05-07T00:28:30;6.55;;;2.13;;
13051;SDS011;6592;47.484;9.726;2023-05-07T00:30:58;3.30;;;1.83;;
13051;SDS011;6592;47.484;9.726;2023-05-07T00:33:26;5.95;;;1.98;;
13051;SDS011;6592;47.484;9.726;2023-05-07T00:35:54;4.22;;;2.05;;
13051;SDS011;6592;47.484;9.726;2023-05-07T00:38:23;6.93;;;2.30;;
13051;SDS011;6592;47.484;9.726;2023-05-07T00:40:52;3.65;;;2.00;;
13051;SDS011;6592;47.484;9.726;2023-05-07T00:43:20;5.03;;;2.58;;
13051;SDS011;6592;47.484;9.726;2023-05-07T00:45:48;4.43;;;2.13;;
13051;SDS011;6592;47.484;9.726;2023-05-07T00:48:17;4.47;;;2.10;;
13051;SDS011;6592;47.484;9.726;2023-05-07T00:50:46;5.28;;;2.20;;
13051;SDS011;6592;47.484;9.726;2023-05-07T00:53:14;3.55;;;2.15;;
13051;SDS011;6592;47.484;9.726;2023-05-07T00:55:42;4.15;;;2.00;;
13051;SDS011;6592;47.484;9.726;2023-05-07T00:58:12;3.75;;;2.10;;
13051;SDS011;6592;47.484;9.726;2023-05-07T01:00:40;3.10;;;1.83;;
13051;SDS011;6592;47.484;9.726;2023-05-07T01:03:09;3.42;;;2.05;;
13051;SDS011;6592;47.484;9.726;2023-05-07T01:05:37;4.65;;;2.30;;
13051;SDS011;6592;47.484;9.726;2023-05-07T01:08:06;4.22;;;2.08;;
13051;SDS011;6592;47.484;9.726;2023-05-07T01:10:35;5.05;;;2.42;;
13051;SDS011;6592;47.484;9.726;2023-05-07T01:13:03;5.85;;;2.25;;
13051;SDS011;6592;47.484;9.726;2023-05-07T01:15:33;5.95;;;2.30;;
13051;SDS011;6592;47.484;9.726;2023-05-07T01:18:01;3.85;;;2.45;;
13051;SDS011;6592;47.484;9.726;2023-05-07T01:20:30;3.83;;;2.00;;
13051;SDS011;6592;47.484;9.726;2023-05-07T01:22:59;3.97;;;2.30;;
13051;SDS011;6592;47.484;9.726;2023-05-07T01:25:28;5.97;;;2.40;;
13051;SDS011;6592;47.484;9.726;2023-05-07T01:27:57;5.70;;;2.25;;
13051;SDS011;6592;47.484;9.726;2023-05-07T01:30:27;4.07;;;2.38;;
13051;SDS011;6592;47.484;9.726;2023-05-07T01:32:57;3.97;;;2.25;;
13051;SDS011;6592;47.484;9.726;2023-05-07T01:35:30;4.18;;;2.15;;
13051;SDS011;6592;47.484;9.726;2023-05-07T01:38:03;4.75;;;2.42;;
13051;SDS011;6592;47.484;9.726;2023-05-07T01:40:32;4.70;;;2.42;;
13051;SDS011;6592;47.484;9.726;2023-05-07T01:43:01;2.90;;;1.77;;
13051;SDS011;6592;47.484;9.726;2023-05-07T01:45:30;3.92;;;2.20;;
13051;SDS011;6592;47.484;9.726;2023-05-07T01:47:59;4.35;;;1.70;;
13051;SDS011;6592;47.484;9.726;2023-05-07T01:50:28;3.72;;;1.85;;
13051;SDS011;6592;47.484;9.726;2023-05-07T01:52:57;4.85;;;1.95;;
13051;SDS011;6592;47.484;9.726;2023-05-07T01:55:27;5.38;;;2.20;;
13051;SDS011;6592;47.484;9.726;2023-05-07T01:57:55;4.57;;;1.83;;
13051;SDS011;6592;47.484;9.726;2023-05-07T02:00:23;3.10;;;1.60;;
13051;SDS011;6592;47.484;9.726;2023-05-07T02:02:52;3.33;;;2.00;;
13051;SDS011;6592;47.484;9.726;2023-05-07T02:05:21;3.40;;;1.70;;
13051;SDS011;6592;47.484;9.726;2023-05-07T02:07:49;6.28;;;2.20;;
13051;SDS011;6592;47.484;9.726;2023-05-07T02:10:17;4.93;;;2.40;;
13051;SDS011;6592;47.484;9.726;2023-05-07T02:12:47;3.95;;;2.20;;
13051;SDS011;6592;47.484;9.726;2023-05-07T02:15:15;3.78;;;2.22;;
13051;SDS011;6592;47.484;9.726;2023-05-07T02:17:57;2.80;;;1.77;;
13051;SDS011;6592;47.484;9.726;2023-05-07T02:20:26;3.75;;;2.00;;
13051;SDS011;6592;47.484;9.726;2023-05-07T02:22:55;6.47;;;2.10;;
13051;SDS011;6592;47.484;9.726;2023-05-07T02:25:23;3.30;;;1.60;;
13051;SDS011;6592;47.484;9.726;2023-05-07T02:27:53;5.28;;;1.85;;
13051;SDS011;6592;47.484;9.726;2023-05-07T02:30:21;6.45;;;2.03;;
13051;SDS011;6592;47.484;9.726;2023-05-07T02:32:50;3.65;;;1.73;;
13051;SDS011;6592;47.484;9.726;2023-05-07T02:35:18;3.72;;;2.00;;
13051;SDS011;6592;47.484;9.726;2023-05-07T02:37:46;7.03;;;2.00;;
13051;SDS011;6592;47.484;9.726;2023-05-07T02:40:14;4.40;;;1.63;;
13051;SDS011;6592;47.484;9.726;2023-05-07T02:42:42;2.88;;;1.67;;
13051;SDS011;6592;47.484;9.726;2023-05-07T02:45:12;2.90;;;1.80;;
13051;SDS011;6592;47.484;9.726;2023-05-07T02:47:40;3.05;;;1.80;;
13051;SDS011;6592;47.484;9.726;2023-05-07T02:50:09;3.13;;;1.80;;
13051;SDS011;6592;47.484;9.726;2023-05-07T02:52:38;7.75;;;2.10;;
13051;SDS011;6592;47.484;9.726;2023-05-07T02:55:07;3.28;;;1.67;;
13051;SDS011;6592;47.484;9.726;2023-05-07T02:57:35;3.10;;;1.80;;
13051;SDS011;6592;47.484;9.726;2023-05-07T03:00:12;3.53;;;1.73;;
13051;SDS011;6592;47.484;9.726;2023-05-07T03:02:41;2.70;;;1.70;;
13051;SDS011;6592;47.484;9.726;2023-05-07T03:05:10;2.58;;;1.42;;
13051;SDS011;6592;47.484;9.726;2023-05-07T03:07:38;3.90;;;1.83;;
13051;SDS011;6592;47.484;9.726;2023-05-07T03:10:07;3.47;;;1.88;;
13051;SDS011;6592;47.484;9.726;2023-05-07T03:12:36;3.85;;;1.80;;
13051;SDS011;6592;47.484;9.726;2023-05-07T03:15:05;3.72;;;2.00;;
13051;SDS011;6592;47.484;9.726;2023-05-07T03:17:35;3.95;;;2.00;;
13051;SDS011;6592;47.484;9.726;2023-05-07T03:20:04;3.15;;;1.63;;
13051;SDS011;6592;47.484;9.726;2023-05-07T03:22:33;3.80;;;1.88;;
13051;SDS011;6592;47.484;9.726;2023-05-07T03:25:02;2.70;;;1.77;;
13051;SDS011;6592;47.484;9.726;2023-05-07T03:27:30;4.57;;;1.83;;
13051;SDS011;6592;47.484;9.726;2023-05-07T03:29:59;3.22;;;1.88;;
13051;SDS011;6592;47.484;9.726;2023-05-07T03:32:27;4.13;;;1.50;;
13051;SDS011;6592;47.484;9.726;2023-05-07T03:34:57;3.05;;;1.90;;
13051;SDS011;6592;47.484;9.726;2023-05-07T03:37:25;3.33;;;1.70;;
13051;SDS011;6592;47.484;9.726;2023-05-07T03:39:53;3.88;;;1.92;;
13051;SDS011;6592;47.484;9.726;2023-05-07T03:42:21;6.93;;;1.95;;
13051;SDS011;6592;47.484;9.726;2023-05-07T03:44:50;6.20;;;2.10;;
13051;SDS011;6592;47.484;9.726;2023-05-07T03:47:18;3.95;;;1.77;;
13051;SDS011;6592;47.484;9.726;2023-05-07T03:49:46;4.13;;;1.92;;
13051;SDS011;6592;47.484;9.726;2023-05-07T03:52:16;3.17;;;1.67;;
13051;SDS011;6592;47.484;9.726;2023-05-07T03:54:48;3.45;;;1.80;;
13051;SDS011;6592;47.484;9.726;2023-05-07T03:57:16;3.63;;;1.95;;
13051;SDS011;6592;47.484;9.726;2023-05-07T03:59:44;4.88;;;1.60;;
13051;SDS011;6592;47.484;9.726;2023-05-07T04:02:13;3.42;;;2.00;;
13051;SDS011;6592;47.484;9.726;2023-05-07T04:04:41;2.60;;;1.60;;
13051;SDS011;6592;47.484;9.726;2023-05-07T04:07:09;4.43;;;1.90;;
13051;SDS011;6592;47.484;9.726;2023-05-07T04:09:38;5.53;;;1.80;;
13051;SDS011;6592;47.484;9.726;2023-05-07T04:12:07;2.33;;;1.60;;
13051;SDS011;6592;47.484;9.726;2023-05-07T04:14:35;2.63;;;1.70;;
13051;SDS011;6592;47.484;9.726;2023-05-07T04:17:03;3.72;;;1.60;;
13051;SDS011;6592;47.484;9.726;2023-05-07T04:19:32;3.75;;;1.90;;
13051;SDS011;6592;47.484;9.726;2023-05-07T04:22:01;3.92;;;1.83;;
13051;SDS011;6592;47.484;9.726;2023-05-07T04:24:30;6.25;;;1.88;;
13051;SDS011;6592;47.484;9.726;2023-05-07T04:27:01;4.38;;;1.77;;
13051;SDS011;6592;47.484;9.726;2023-05-07T04:29:29;2.92;;;1.70;;
13051;SDS011;6592;47.484;9.726;2023-05-07T04:31:57;3.25;;;1.67;;
13051;SDS011;6592;47.484;9.726;2023-05-07T04:34:25;4.07;;;1.65;;
13051;SDS011;6592;47.484;9.726;2023-05-07T04:36:53;3.03;;;1.90;;
13051;SDS011;6592;47.484;9.726;2023-05-07T04:39:24;2.60;;;1.60;;
13051;SDS011;6592;47.484;9.726;2023-05-07T04:41:53;3.38;;;1.67;;
13051;SDS011;6592;47.484;9.726;2023-05-07T04:44:22;3.60;;;1.88;;
13051;SDS011;6592;47.484;9.726;2023-05-07T04:46:51;3.70;;;1.60;;
13051;SDS011;6592;47.484;9.726;2023-05-07T04:49:19;3.90;;;1.80;;
13051;SDS011;6592;47.484;9.726;2023-05-07T04:51:47;4.78;;;1.85;;
13051;SDS011;6592;47.484;9.726;2023-05-07T04:54:15;3.17;;;1.65;;
13051;SDS011;6592;47.484;9.726;2023-05-07T04:56:43;7.80;;;1.58;;
13051;SDS011;6592;47.484;9.726;2023-05-07T04:59:12;6.40;;;1.80;;
13051;SDS011;6592;47.484;9.726;2023-05-07T05:01:41;2.97;;;1.55;;
13051;SDS011;6592;47.484;9.726;2023-05-07T05:04:10;3.88;;;1.65;;
13051;SDS011;6592;47.484;9.726;2023-05-07T05:06:38;2.95;;;1.60;;
13051;SDS011;6592;47.484;9.726;2023-05-07T05:09:06;4.63;;;1.58;;
13051;SDS011;6592;47.484;9.726;2023-05-07T05:11:34;3.00;;;1.52;;
13051;SDS011;6592;47.484;9.726;2023-05-07T05:14:02;3.28;;;1.60;;
13051;SDS011;6592;47.484;9.726;2023-05-07T05:16:30;2.95;;;1.63;;
13051;SDS011;6592;47.484;9.726;2023-05-07T05:19:01;3.45;;;1.85;;
13051;SDS011;6592;47.484;9.726;2023-05-07T05:21:30;3.53;;;1.60;;
13051;SDS011;6592;47.484;9.726;2023-05-07T05:23:58;3.58;;;1.40;;
13051;SDS011;6592;47.484;9.726;2023-05-07T05:26:26;2.83;;;1.55;;
13051;SDS011;6592;47.484;9.726;2023-05-07T05:28:55;3.00;;;1.65;;
13051;SDS011;6592;47.484;9.726;2023-05-07T05:31:23;3.05;;;1.33;;
13051;SDS011;6592;47.484;9.726;2023-05-07T05:33:51;2.72;;;1.45;;
13051;SDS011;6592;47.484;9.726;2023-05-07T05:36:21;3.05;;;1.50;;
13051;SDS011;6592;47.484;9.726;2023-05-07T05:38:49;3.65;;;1.48;;
13051;SDS011;6592;47.484;9.726;2023-05-07T05:41:17;3.10;;;1.50;;
13051;SDS011;6592;47.484;9.726;2023-05-07T05:43:46;3.25;;;1.42;;
13051;SDS011;6592;47.484;9.726;2023-05-07T05:46:14;4.55;;;1.48;;
13051;SDS011;6592;47.484;9.726;2023-05-07T05:48:43;2.05;;;1.10;;
13051;SDS011;6592;47.484;9.726;2023-05-07T05:51:11;3.15;;;1.40;;
13051;SDS011;6592;47.484;9.726;2023-05-07T05:53:41;2.28;;;1.20;;
13051;SDS011;6592;47.484;9.726;2023-05-07T05:56:09;2.55;;;1.23;;
13051;SDS011;6592;47.484;9.726;2023-05-07T05:58:37;3.47;;;1.00;;
13051;SDS011;6592;47.484;9.726;2023-05-07T06:01:05;2.17;;;1.08;;
13051;SDS011;6592;47.484;9.726;2023-05-07T06:03:34;2.42;;;1.20;;
13051;SDS011;6592;47.484;9.726;2023-05-07T06:06:02;3.65;;;1.00;;
13051;SDS011;6592;47.484;9.726;2023-05-07T06:08:30;3.30;;;1.20;;
13051;SDS011;6592;47.484;9.726;2023-05-07T06:11:00;3.33;;;1.02;;
13051;SDS011;6592;47.484;9.726;2023-05-07T06:13:29;1.90;;;1.10;;
13051;SDS011;6592;47.484;9.726;2023-05-07T06:15:57;2.20;;;1.10;;
13051;SDS011;6592;47.484;9.726;2023-05-07T06:18:26;2.50;;;1.10;;
13051;SDS011;6592;47.484;9.726;2023-05-07T06:20:54;1.90;;;1.00;;
13051;SDS011;6592;47.484;9.726;2023-05-07T06:23:22;2.30;;;1.27;;
13051;SDS011;6592;47.484;9.726;2023-05-07T06:25:50;4.85;;;1.15;;
13051;SDS011;6592;47.484;9.726;2023-05-07T06:28:20;1.90;;;1.20;;
13051;SDS011;6592;47.484;9.726;2023-05-07T06:30:48;2.65;;;1.00;;
13051;SDS011;6592;47.484;9.726;2023-05-07T06:33:17;3.15;;;1.23;;
13051;SDS011;6592;47.484;9.726;2023-05-07T06:35:46;1.60;;;0.95;;
13051;SDS011;6592;47.484;9.726;2023-05-07T06:38:14;2.22;;;1.15;;
13051;SDS011;6592;47.484;9.726;2023-05-07T06:40:43;3.33;;;1.20;;
13051;SDS011;6592;47.484;9.726;2023-05-07T06:43:15;1.88;;;1.02;;
13051;SDS011;6592;47.484;9.726;2023-05-07T06:45:44;3.47;;;1.60;;
13051;SDS011;6592;47.484;9.726;2023-05-07T06:48:13;3.03;;;1.40;;
13051;SDS011;6592;47.484;9.726;2023-05-07T06:50:41;3.35;;;1.20;;
13051;SDS011;6592;47.484;9.726;2023-05-07T06:53:09;2.05;;;0.98;;
13051;SDS011;6592;47.484;9.726;2023-05-07T06:55:38;1.50;;;0.80;;
13051;SDS011;6592;47.484;9.726;2023-05-07T06:58:06;2.13;;;1.00;;
13051;SDS011;6592;47.484;9.726;2023-05-07T07:00:34;2.08;;;0.88;;
13051;SDS011;6592;47.484;9.726;2023-05-07T07:03:03;2.53;;;0.90;;
13051;SDS011;6592;47.484;9.726;2023-05-07T07:05:32;1.77;;;0.90;;
13051;SDS011;6592;47.484;9.726;2023-05-07T07:08:00;1.58;;;0.77;;
13051;SDS011;6592;47.484;9.726;2023-05-07T07:10:28;2.08;;;0.80;;
13051;SDS011;6592;47.484;9.726;2023-05-07T07:12:56;2.03;;;0.73;;
13051;SDS011;6592;47.484;9.726;2023-05-07T07:15:25;1.80;;;0.80;;
13051;SDS011;6592;47.484;9.726;2023-05-07T07:17:54;1.50;;;0.73;;
13051;SDS011;6592;47.484;9.726;2023-05-07T07:20:24;1.58;;;0.82;;
13051;SDS011;6592;47.484;9.726;2023-05-07T07:22:52;2.15;;;0.75;;
13051;SDS011;6592;47.484;9.726;2023-05-07T07:25:20;2.20;;;1.10;;
13051;SDS011;6592;47.484;9.726;2023-05-07T07:27:48;1.45;;;0.68;;
13051;SDS011;6592;47.484;9.726;2023-05-07T07:30:16;2.15;;;1.00;;
13051;SDS011;6592;47.484;9.726;2023-05-07T07:32:45;1.63;;;0.73;;
13051;SDS011;6592;47.484;9.726;2023-05-07T07:35:13;3.03;;;0.80;;
13051;SDS011;6592;47.484;9.726;2023-05-07T07:37:43;3.20;;;1.20;;
13051;SDS011;6592;47.484;9.726;2023-05-07T07:40:11;1.48;;;0.60;;
13051;SDS011;6592;47.484;9.726;2023-05-07T07:42:40;1.20;;;0.73;;
13051;SDS011;6592;47.484;9.726;2023-05-07T07:45:08;1.00;;;0.50;;
13051;SDS011;6592;47.484;9.726;2023-05-07T07:47:36;1.30;;;0.70;;
13051;SDS011;6592;47.484;9.726;2023-05-07T07:50:05;1.02;;;0.60;;
13051;SDS011;6592;47.484;9.726;2023-05-07T07:52:34;1.40;;;0.70;;
13051;SDS011;6592;47.484;9.726;2023-05-07T07:55:05;2.03;;;0.88;;
13051;SDS011;6592;47.484;9.726;2023-05-07T07:57:34;0.80;;;0.40;;
13051;SDS011;6592;47.484;9.726;2023-05-07T08:00:02;1.45;;;0.70;;
13051;SDS011;6592;47.484;9.726;2023-05-07T08:02:33;1.17;;;0.70;;
13051;SDS011;6592;47.484;9.726;2023-05-07T08:05:02;1.95;;;0.60;;
13051;SDS011;6592;47.484;9.726;2023-05-07T08:07:30;1.40;;;0.70;;
13051;SDS011;6592;47.484;9.726;2023-05-07T08:09:58;3.10;;;0.80;;
13051;SDS011;6592;47.484;9.726;2023-05-07T08:12:28;1.50;;;0.68;;
13051;SDS011;6592;47.484;9.726;2023-05-07T08:14:56;1.83;;;0.80;;
13051;SDS011;6592;47.484;9.726;2023-05-07T08:17:24;1.65;;;0.70;;
13051;SDS011;6592;47.484;9.726;2023-05-07T08:19:52;1.08;;;0.60;;
13051;SDS011;6592;47.484;9.726;2023-05-07T08:22:20;1.65;;;0.70;;
13051;SDS011;6592;47.484;9.726;2023-05-07T08:24:49;3.80;;;1.80;;
13051;SDS011;6592;47.484;9.726;2023-05-07T08:27:17;4.07;;;1.98;;
13051;SDS011;6592;47.484;9.726;2023-05-07T08:29:47;4.05;;;2.30;;
13051;SDS011;6592;47.484;9.726;2023-05-07T08:32:16;4.93;;;2.40;;
13051;SDS011;6592;47.484;9.726;2023-05-07T08:34:44;4.97;;;2.90;;
13051;SDS011;6592;47.484;9.726;2023-05-07T08:37:12;4.88;;;2.92;;
13051;SDS011;6592;47.484;9.726;2023-05-07T08:39:40;4.80;;;3.08;;
13051;SDS011;6592;47.484;9.726;2023-05-07T08:42:09;4.78;;;2.95;;
13051;SDS011;6592;47.484;9.726;2023-05-07T08:44:38;4.70;;;2.90;;
13051;SDS011;6592;47.484;9.726;2023-05-07T08:47:09;4.57;;;3.00;;
13051;SDS011;6592;47.484;9.726;2023-05-07T08:49:37;6.78;;;3.00;;
13051;SDS011;6592;47.484;9.726;2023-05-07T08:52:06;5.47;;;2.90;;
13051;SDS011;6592;47.484;9.726;2023-05-07T08:54:36;4.15;;;2.70;;
13051;SDS011;6592;47.484;9.726;2023-05-07T08:57:05;4.95;;;3.22;;
13051;SDS011;6592;47.484;9.726;2023-05-07T08:59:33;4.88;;;2.50;;
13051;SDS011;6592;47.484;9.726;2023-05-07T09:02:03;3.55;;;2.63;;
13051;SDS011;6592;47.484;9.726;2023-05-07T09:04:36;3.85;;;2.35;;
13051;SDS011;6592;47.484;9.726;2023-05-07T09:07:04;4.10;;;2.78;;
13051;SDS011;6592;47.484;9.726;2023-05-07T09:09:33;3.45;;;2.20;;
13051;SDS011;6592;47.484;9.726;2023-05-07T09:12:01;7.22;;;2.50;;
13051;SDS011;6592;47.484;9.726;2023-05-07T09:14:30;4.40;;;2.45;;
13051;SDS011;6592;47.484;9.726;2023-05-07T09:16:58;3.05;;;2.08;;
13051;SDS011;6592;47.484;9.726;2023-05-07T09:19:26;4.45;;;2.10;;
13051;SDS011;6592;47.484;9.726;2023-05-07T09:22:00;4.30;;;2.15;;
13051;SDS011;6592;47.484;9.726;2023-05-07T09:24:28;3.58;;;1.95;;
13051;SDS011;6592;47.484;9.726;2023-05-07T09:27:01;4.10;;;1.80;;
13051;SDS011;6592;47.484;9.726;2023-05-07T09:29:29;4.30;;;1.98;;
13051;SDS011;6592;47.484;9.726;2023-05-07T09:32:01;4.70;;;2.50;;
13051;SDS011;6592;47.484;9.726;2023-05-07T09:34:30;4.00;;;2.38;;
13051;SDS011;6592;47.484;9.726;2023-05-07T09:37:00;3.53;;;2.15;;
13051;SDS011;6592;47.484;9.726;2023-05-07T09:39:38;3.93;;;2.20;;
13051;SDS011;6592;47.484;9.726;2023-05-07T09:42:07;3.40;;;2.35;;
13051;SDS011;6592;47.484;9.726;2023-05-07T09:44:35;3.65;;;2.05;;
13051;SDS011;6592;47.484;9.726;2023-05-07T09:47:04;4.60;;;2.10;;
13051;SDS011;6592;47.484;9.726;2023-05-07T09:49:34;3.40;;;2.17;;
13051;SDS011;6592;47.484;9.726;2023-05-07T09:52:05;3.20;;;2.00;;
13051;SDS011;6592;47.484;9.726;2023-05-07T09:54:35;3.38;;;2.20;;
13051;SDS011;6592;47.484;9.726;2023-05-07T09:57:05;4.07;;;2.10;;
13051;SDS011;6592;47.484;9.726;2023-05-07T09:59:34;3.15;;;2.08;;
13051;SDS011;6592;47.484;9.726;2023-05-07T10:02:04;2.93;;;2.00;;
13051;SDS011;6592;47.484;9.726;2023-05-07T10:04:33;2.85;;;2.00;;
13051;SDS011;6592;47.484;9.726;2023-05-07T10:07:01;3.53;;;2.35;;
13051;SDS011;6592;47.484;9.726;2023-05-07T10:09:32;3.03;;;2.10;;
13051;SDS011;6592;47.484;9.726;2023-05-07T10:12:05;2.72;;;1.95;;
13051;SDS011;6592;47.484;9.726;2023-05-07T10:14:33;3.35;;;2.05;;
13051;SDS011;6592;47.484;9.726;2023-05-07T10:17:02;3.05;;;1.90;;
13051;SDS011;6592;47.484;9.726;2023-05-07T10:19:30;3.08;;;1.90;;
13051;SDS011;6592;47.484;9.726;2023-05-07T10:22:01;3.33;;;1.85;;
13051;SDS011;6592;47.484;9.726;2023-05-07T10:24:33;3.35;;;2.13;;
13051;SDS011;6592;47.484;9.726;2023-05-07T10:29:33;4.13;;;1.80;;
13051;SDS011;6592;47.484;9.726;2023-05-07T10:32:14;2.65;;;1.40;;
13051;SDS011;6592;47.484;9.726;2023-05-07T10:34:56;3.75;;;1.65;;
13051;SDS011;6592;47.484;9.726;2023-05-07T10:37:29;2.35;;;1.50;;
13051;SDS011;6592;47.484;9.726;2023-05-07T10:39:58;2.90;;;1.50;;
13051;SDS011;6592;47.484;9.726;2023-05-07T10:42:26;2.10;;;1.30;;
13051;SDS011;6592;47.484;9.726;2023-05-07T10:44:55;2.20;;;1.42;;
13051;SDS011;6592;47.484;9.726;2023-05-07T10:47:23;3.13;;;1.70;;
13051;SDS011;6592;47.484;9.726;2023-05-07T11:01:58;10.10;;;5.47;;
13051;SDS011;6592;47.484;9.726;2023-05-07T11:10:07;2.85;;;1.58;;
13051;SDS011;6592;47.484;9.726;2023-05-07T11:12:48;3.03;;;1.40;;
13051;SDS011;6592;47.484;9.726;2023-05-07T11:15:34;3.45;;;1.73;;
13051;SDS011;6592;47.484;9.726;2023-05-07T11:18:04;3.85;;;1.80;;
13051;SDS011;6592;47.484;9.726;2023-05-07T11:28:54;3.60;;;1.70;;
13051;SDS011;6592;47.484;9.726;2023-05-07T11:31:24;3.05;;;1.55;;
13051;SDS011;6592;47.484;9.726;2023-05-07T11:33:54;4.22;;;1.20;;
13051;SDS011;6592;47.484;9.726;2023-05-07T11:36:23;1.88;;;0.98;;
13051;SDS011;6592;47.484;9.726;2023-05-07T11:38:52;1.20;;;0.70;;
13051;SDS011;6592;47.484;9.726;2023-05-07T11:41:20;1.20;;;0.80;;
13051;SDS011;6592;47.484;9.726;2023-05-07T11:43:57;1.70;;;0.90;;
13051;SDS011;6592;47.484;9.726;2023-05-07T11:46:26;1.65;;;0.80;;
13051;SDS011;6592;47.484;9.726;2023-05-07T11:48:56;1.93;;;0.90;;
13051;SDS011;6592;47.484;9.726;2023-05-07T11:51:25;1.88;;;1.02;;
13051;SDS011;6592;47.484;9.726;2023-05-07T11:53:56;3.28;;;1.00;;
13051;SDS011;6592;47.484;9.726;2023-05-07T11:56:24;1.90;;;0.80;;
13051;SDS011;6592;47.484;9.726;2023-05-07T11:58:52;2.60;;;0.90;;
13051;SDS011;6592;47.484;9.726;2023-05-07T12:01:22;2.40;;;1.10;;
13051;SDS011;6592;47.484;9.726;2023-05-07T12:03:50;2.08;;;1.10;;
13051;SDS011;6592;47.484;9.726;2023-05-07T12:06:19;2.60;;;1.30;;
13051;SDS011;6592;47.484;9.726;2023-05-07T12:08:47;3.13;;;1.10;;
13051;SDS011;6592;47.484;9.726;2023-05-07T12:11:16;2.42;;;1.10;;
13051;SDS011;6592;47.484;9.726;2023-05-07T12:13:49;2.03;;;1.00;;
13051;SDS011;6592;47.484;9.726;2023-05-07T12:16:18;1.88;;;1.00;;
13051;SDS011;6592;47.484;9.726;2023-05-07T12:18:48;4.63;;;1.08;;
13051;SDS011;6592;47.484;9.726;2023-05-07T12:21:18;1.60;;;0.98;;
13051;SDS011;6592;47.484;9.726;2023-05-07T12:23:47;2.13;;;1.10;;
13051;SDS011;6592;47.484;9.726;2023-05-07T12:26:15;2.40;;;1.10;;
13051;SDS011;6592;47.484;9.726;2023-05-07T12:28:44;1.85;;;1.00;;
13051;SDS011;6592;47.484;9.726;2023-05-07T12:31:13;2.22;;;0.98;;
13051;SDS011;6592;47.484;9.726;2023-05-07T12:33:42;2.25;;;0.90;;
13051;SDS011;6592;47.484;9.726;2023-05-07T12:36:12;2.10;;;1.08;;
13051;SDS011;6592;47.484;9.726;2023-05-07T12:38:40;2.10;;;1.10;;
13051;SDS011;6592;47.484;9.726;2023-05-07T12:41:09;4.18;;;1.20;;
13051;SDS011;6592;47.484;9.726;2023-05-07T12:43:38;2.53;;;1.30;;
13051;SDS011;6592;47.484;9.726;2023-05-07T12:46:07;2.25;;;1.08;;
13051;SDS011;6592;47.484;9.726;2023-05-07T12:48:36;3.13;;;1.10;;
13051;SDS011;6592;47.484;9.726;2023-05-07T12:51:05;2.60;;;1.40;;
13051;SDS011;6592;47.484;9.726;2023-05-07T12:53:40;2.38;;;1.10;;
13051;SDS011;6592;47.484;9.726;2023-05-07T12:56:09;3.53;;;1.10;;
13051;SDS011;6592;47.484;9.726;2023-05-07T12:58:37;1.85;;;1.17;;
13051;SDS011;6592;47.484;9.726;2023-05-07T13:01:06;1.75;;;1.10;;
13051;SDS011;6592;47.484;9.726;2023-05-07T13:03:38;1.65;;;1.05;;
13051;SDS011;6592;47.484;9.726;2023-05-07T13:06:07;1.77;;;1.08;;
13051;SDS011;6592;47.484;9.726;2023-05-07T13:08:40;2.20;;;1.20;;
13051;SDS011;6592;47.484;9.726;2023-05-07T13:11:10;2.20;;;1.00;;
13051;SDS011;6592;47.484;9.726;2023-05-07T13:13:39;2.10;;;1.10;;
13051;SDS011;6592;47.484;9.726;2023-05-07T13:16:08;2.22;;;1.30;;
13051;SDS011;6592;47.484;9.726;2023-05-07T13:18:38;3.63;;;1.40;;
13051;SDS011;6592;47.484;9.726;2023-05-07T13:21:07;1.98;;;1.23;;
13051;SDS011;6592;47.484;9.726;2023-05-07T13:23:36;2.28;;;1.10;;
13051;SDS011;6592;47.484;9.726;2023-05-07T13:26:06;2.88;;;1.30;;
13051;SDS011;6592;47.484;9.726;2023-05-07T13:28:51;2.58;;;1.40;;
13051;SDS011;6592;47.484;9.726;2023-05-07T13:31:19;2.70;;;1.20;;
13051;SDS011;6592;47.484;9.726;2023-05-07T13:33:48;2.35;;;1.23;;
13051;SDS011;6592;47.484;9.726;2023-05-07T13:36:16;5.38;;;1.38;;
13051;SDS011;6592;47.484;9.726;2023-05-07T13:38:44;3.13;;;1.33;;
13051;SDS011;6592;47.484;9.726;2023-05-07T13:41:14;2.33;;;1.48;;
13051;SDS011;6592;47.484;9.726;2023-05-07T13:43:42;3.33;;;1.40;;
13051;SDS011;6592;47.484;9.726;2023-05-07T13:46:10;4.78;;;1.70;;
13051;SDS011;6592;47.484;9.726;2023-05-07T13:48:39;3.80;;;1.45;;
13051;SDS011;6592;47.484;9.726;2023-05-07T13:51:08;3.00;;;1.60;;
13051;SDS011;6592;47.484;9.726;2023-05-07T13:53:36;1.98;;;1.35;;
13051;SDS011;6592;47.484;9.726;2023-05-07T13:56:04;2.53;;;1.50;;
13051;SDS011;6592;47.484;9.726;2023-05-07T13:58:34;3.33;;;1.55;;
13051;SDS011;6592;47.484;9.726;2023-05-07T14:01:10;2.80;;;1.70;;
13051;SDS011;6592;47.484;9.726;2023-05-07T14:03:38;2.67;;;1.70;;
13051;SDS011;6592;47.484;9.726;2023-05-07T14:06:07;3.50;;;1.70;;
13051;SDS011;6592;47.484;9.726;2023-05-07T14:08:35;2.83;;;1.70;;
13051;SDS011;6592;47.484;9.726;2023-05-07T14:11:03;3.13;;;1.40;;
13051;SDS011;6592;47.484;9.726;2023-05-07T14:13:32;3.25;;;1.85;;
13051;SDS011;6592;47.484;9.726;2023-05-07T14:16:03;2.97;;;1.80;;
13051;SDS011;6592;47.484;9.726;2023-05-07T14:18:32;3.22;;;1.70;;
13051;SDS011;6592;47.484;9.726;2023-05-07T14:21:04;2.97;;;1.67;;
13051;SDS011;6592;47.484;9.726;2023-05-07T14:23:33;2.92;;;1.92;;
13051;SDS011;6592;47.484;9.726;2023-05-07T14:26:02;4.97;;;1.77;;
13051;SDS011;6592;47.484;9.726;2023-05-07T14:28:30;4.45;;;1.65;;
13051;SDS011;6592;47.484;9.726;2023-05-07T14:30:58;7.30;;;1.80;;
13051;SDS011;6592;47.484;9.726;2023-05-07T14:33:28;2.35;;;1.60;;
13051;SDS011;6592;47.484;9.726;2023-05-07T14:35:56;3.97;;;2.00;;
13051;SDS011;6592;47.484;9.726;2023-05-07T14:38:25;3.28;;;1.80;;
13051;SDS011;6592;47.484;9.726;2023-05-07T14:40:53;2.33;;;1.63;;
13051;SDS011;6592;47.484;9.726;2023-05-07T14:43:22;3.13;;;1.90;;
13051;SDS011;6592;47.484;9.726;2023-05-07T14:45:50;3.13;;;1.80;;
13051;SDS011;6592;47.484;9.726;2023-05-07T14:48:19;4.35;;;1.80;;
13051;SDS011;6592;47.484;9.726;2023-05-07T14:50:48;3.70;;;2.00;;
13051;SDS011;6592;47.484;9.726;2023-05-07T14:53:17;3.08;;;1.80;;
13051;SDS011;6592;47.484;9.726;2023-05-07T14:55:46;3.10;;;2.00;;
13051;SDS011;6592;47.484;9.726;2023-05-07T14:58:15;2.90;;;2.00;;
13051;SDS011;6592;47.484;9.726;2023-05-07T15:00:43;4.45;;;2.10;;
13051;SDS011;6592;47.484;9.726;2023-05-07T15:03:11;3.35;;;2.30;;
13051;SDS011;6592;47.484;9.726;2023-05-07T15:05:39;3.03;;;2.10;;
13051;SDS011;6592;47.484;9.726;2023-05-07T15:08:10;3.53;;;2.35;;
13051;SDS011;6592;47.484;9.726;2023-05-07T15:10:38;3.63;;;2.13;;
13051;SDS011;6592;47.484;9.726;2023-05-07T15:13:08;3.78;;;2.00;;
13051;SDS011;6592;47.484;9.726;2023-05-07T15:15:41;3.85;;;2.08;;
13051;SDS011;6592;47.484;9.726;2023-05-07T15:18:10;3.38;;;2.30;;
13051;SDS011;6592;47.484;9.726;2023-05-07T15:20:38;4.75;;;2.22;;
13051;SDS011;6592;47.484;9.726;2023-05-07T15:23:07;3.67;;;2.22;;
13051;SDS011;6592;47.484;9.726;2023-05-07T15:25:39;3.45;;;2.25;;
13051;SDS011;6592;47.484;9.726;2023-05-07T15:28:08;4.05;;;2.33;;
13051;SDS011;6592;47.484;9.726;2023-05-07T15:30:36;4.85;;;2.20;;
13051;SDS011;6592;47.484;9.726;2023-05-07T15:33:05;5.35;;;2.05;;
13051;SDS011;6592;47.484;9.726;2023-05-07T15:35:33;3.13;;;1.90;;
13051;SDS011;6592;47.484;9.726;2023-05-07T15:38:01;4.10;;;2.30;;
13051;SDS011;6592;47.484;9.726;2023-05-07T15:40:30;4.80;;;2.70;;